AirNav   Duncan Aviation - Near you to keep you flying
 
 869 users online  

WI80 Pisha Farm Airport
Kendall, Wisconsin, USA


FAA INFORMATION EFFECTIVE 26 JANUARY 2023

Location

FAA Identifier: WI80
Lat/Long: 43-46-34.7100N 090-24-51.3850W
43-46.578500N 090-24.856417W
43.7763083,-90.4142736
(estimated)
Elevation: 1411 ft. / 430 m (estimated)
From city: 2 miles WSW of KENDALL, WI
Time zone: UTC -6 (UTC -5 during Daylight Saving Time)
Zip code: 54638

Airport Operations

Airport use: Private use. Permission required prior to landing
Activation date: 12/2020
Control tower: no
ARTCC: CHICAGO CENTER
FSS: GREEN BAY FLIGHT SERVICE STATION
Attendance: 
Segmented circle: no

Airport Communications

CTAF: 122.9
WX AWOS-3 at 82C (13 nm E): 123.925 (608-562-6153)
WX ASOS at CMY (18 nm NW): 119.775

Nearby radio navigation aids

VOR radial/distance  VOR name  Freq  Var
DLLr293/31.3DELLS VORTAC117.0003E

 
NDB name  Hdg/Dist  Freq  Var  ID
MCCOY135/13.841200ECMY -.-. -- -.--

Airport Services

Runway Information

Runway 18/36

Dimensions: 1530 x 100 ft. / 466 x 30 m
Surface: turf
RUNWAY 18  RUNWAY 36
Latitude: 43-46.704167N43-46.452833N
Longitude: 090-24.867833W090-24.845000W
Elevation: 1371.0 ft.1411.0 ft.
Traffic pattern: leftleft

Airport Ownership and Management from official FAA records

Ownership: Privately-owned
Owner: VINCENT R PISHA
29082 COUNTY HWY P
KENDALL, WI 54638
Phone 847-708-3381
Manager: VINCENT R PISHA
29082 COUNTY HWY P
KENDALL, WI 54638
Phone 847-708-3381

Instrument Procedures

There are no published instrument procedures at WI80.

Some nearby airports with instrument procedures:

KVOK - Volk Field Airport (12 nm NE)
Y72 - Bloyer Field Airport (12 nm N)
82C - Mauston/New Lisbon Union Airport (13 nm E)
KCMY - Sparta/Fort Mc Coy Airport (18 nm NW)
KDAF - Necedah Airport (21 nm NE)
 
Loc | Ops | Rwys | IFR | FBO | Links
Com | Nav | Svcs | Stats | Notes
Aerial photo
WARNING: Photo may not be current or correct
Aerial photo of WI80 (Pisha Farm Airport)
Photo by Vince Pisha
Taken in 2019
looking Northeast

Do you have a better or more recent aerial photo of Pisha Farm Airport that you would like to share? If so, please send us your photo.

 
Airport distance calculator
Flying to Pisha Farm Airport? Find the distance to fly.

From to WI80

Sunrise and sunset
Times for 27-Jan-2023
 Local
(UTC-6)
 Zulu
(UTC)
Morning civil twilight06:5412:54
Sunrise07:2513:25
Sunset17:0423:04
Evening civil twilight17:3523:35

Current date and time
Zulu (UTC)  27-Jan-2023 12:41:55
Local (UTC-6)  27-Jan-2023 06:41:55
 
METAR
KVOK 
11nm NE 
271155Z AUTO 17010KT 4SM -SN OVC037 M08/M10 A2957 RMK AO2 SLP034 P0000 60000 T10761103 11076 21124 57042
K82C 
13nm E 
271215Z AUTO 18009G16KT 4SM -SN SCT019 SCT028 OVC039 M06/M09 A2960 RMK AO2 T10651088
KCMY 
18nm NW 
271155Z AUTO 18007KT 8SM -UP BKN022 OVC027 M07/M08 A2956 RMK AO2 BKN V OVC SLP027 P0000 60000 T10661083 11066 21118 57040 FZRANO $
TAF
KVOK 
11nm NE 
270900Z 2709/2815 17009KT 9999 SCT007 OVC040 620409 510063 QNH2945INS BECMG 2712/2713 27009KT 8000 -SN OVC015 620159 510043 QNH2945INS BECMG 2715/2716 27015KT 9999 NSW OVC015 620159 510043 QNH2944INS BECMG 2806/2807 29009KT 9999 SCT015 SCT021 510023 QNH2997INS BECMG 2810/2811 VRB06KT 9999 FEW060 FEW085 BKN120 510023 QNH3002INS TX05/2718Z TNM10/2709Z
NOTAMs
Click for the latest NOTAMs
NOTAMs are issued by the DoD/FAA and will open in a separate window not controlled by AirNav.

 

 
 

Would you like to see your business listed on this page?

 If your business provides an interesting product or service to pilots, flight crews, aircraft, or users of the Pisha Farm Airport, you should consider listing it here.  To start the listing process, click on the button below
 
Add a business
 

Other Pages about Pisha Farm Airport

Update a link
 
Copyright © AirNav, LLC. All rights reserved. Privacy Policy  Contact